sensor_id;sensor_type;location;lat;lon;timestamp;P1;durP1;ratioP1;P2;durP2;ratioP2
40729;SDS011;26418;50.070;8.436;2024-01-30T00:01:35;26.05;;;14.75;;
40729;SDS011;26418;50.070;8.436;2024-01-30T00:04:00;21.95;;;13.68;;
40729;SDS011;26418;50.070;8.436;2024-01-30T00:06:26;25.33;;;14.02;;
40729;SDS011;26418;50.070;8.436;2024-01-30T00:08:52;23.50;;;13.88;;
40729;SDS011;26418;50.070;8.436;2024-01-30T00:11:18;27.05;;;13.82;;
40729;SDS011;26418;50.070;8.436;2024-01-30T00:13:44;24.55;;;14.73;;
40729;SDS011;26418;50.070;8.436;2024-01-30T00:16:19;27.40;;;15.27;;
40729;SDS011;26418;50.070;8.436;2024-01-30T00:18:45;27.98;;;15.30;;
40729;SDS011;26418;50.070;8.436;2024-01-30T00:21:11;26.75;;;14.70;;
40729;SDS011;26418;50.070;8.436;2024-01-30T00:23:36;28.00;;;14.82;;
40729;SDS011;26418;50.070;8.436;2024-01-30T00:26:02;23.02;;;14.40;;
40729;SDS011;26418;50.070;8.436;2024-01-30T00:28:28;21.05;;;12.30;;
40729;SDS011;26418;50.070;8.436;2024-01-30T00:30:53;26.23;;;14.45;;
40729;SDS011;26418;50.070;8.436;2024-01-30T00:33:19;25.80;;;14.65;;
40729;SDS011;26418;50.070;8.436;2024-01-30T00:35:44;27.25;;;13.90;;
40729;SDS011;26418;50.070;8.436;2024-01-30T00:38:10;23.52;;;13.88;;
40729;SDS011;26418;50.070;8.436;2024-01-30T00:40:36;26.33;;;13.95;;
40729;SDS011;26418;50.070;8.436;2024-01-30T00:43:01;23.63;;;13.48;;
40729;SDS011;26418;50.070;8.436;2024-01-30T00:45:27;24.70;;;14.18;;
40729;SDS011;26418;50.070;8.436;2024-01-30T00:47:52;25.55;;;13.57;;
40729;SDS011;26418;50.070;8.436;2024-01-30T00:50:18;25.42;;;14.40;;
40729;SDS011;26418;50.070;8.436;2024-01-30T00:52:44;25.20;;;13.50;;
40729;SDS011;26418;50.070;8.436;2024-01-30T00:55:10;26.75;;;13.68;;
40729;SDS011;26418;50.070;8.436;2024-01-30T00:57:36;22.45;;;12.82;;
40729;SDS011;26418;50.070;8.436;2024-01-30T01:00:02;27.70;;;14.35;;
40729;SDS011;26418;50.070;8.436;2024-01-30T01:02:28;23.23;;;13.85;;
40729;SDS011;26418;50.070;8.436;2024-01-30T01:04:54;23.13;;;12.82;;
40729;SDS011;26418;50.070;8.436;2024-01-30T01:07:19;23.27;;;12.52;;
40729;SDS011;26418;50.070;8.436;2024-01-30T01:09:45;21.73;;;12.40;;
40729;SDS011;26418;50.070;8.436;2024-01-30T01:12:10;22.85;;;13.75;;
40729;SDS011;26418;50.070;8.436;2024-01-30T01:14:36;26.85;;;13.63;;
40729;SDS011;26418;50.070;8.436;2024-01-30T01:17:01;27.13;;;14.50;;
40729;SDS011;26418;50.070;8.436;2024-01-30T01:19:27;24.02;;;13.43;;
40729;SDS011;26418;50.070;8.436;2024-01-30T01:21:52;26.80;;;14.23;;
40729;SDS011;26418;50.070;8.436;2024-01-30T01:24:18;22.02;;;13.63;;
40729;SDS011;26418;50.070;8.436;2024-01-30T01:26:44;20.48;;;13.27;;
40729;SDS011;26418;50.070;8.436;2024-01-30T01:29:09;22.27;;;12.88;;
40729;SDS011;26418;50.070;8.436;2024-01-30T01:31:37;20.55;;;12.68;;
40729;SDS011;26418;50.070;8.436;2024-01-30T01:34:09;24.80;;;14.07;;
40729;SDS011;26418;50.070;8.436;2024-01-30T01:36:35;21.58;;;12.70;;
40729;SDS011;26418;50.070;8.436;2024-01-30T01:39:01;24.15;;;14.27;;
40729;SDS011;26418;50.070;8.436;2024-01-30T01:41:29;30.13;;;12.95;;
40729;SDS011;26418;50.070;8.436;2024-01-30T01:43:56;22.95;;;13.20;;
40729;SDS011;26418;50.070;8.436;2024-01-30T01:46:22;23.38;;;13.25;;
40729;SDS011;26418;50.070;8.436;2024-01-30T01:48:47;22.80;;;13.75;;
40729;SDS011;26418;50.070;8.436;2024-01-30T01:51:14;24.10;;;13.27;;
40729;SDS011;26418;50.070;8.436;2024-01-30T01:53:40;18.25;;;12.55;;
40729;SDS011;26418;50.070;8.436;2024-01-30T01:56:23;25.33;;;13.73;;
40729;SDS011;26418;50.070;8.436;2024-01-30T01:58:49;21.77;;;12.52;;
40729;SDS011;26418;50.070;8.436;2024-01-30T02:01:17;21.23;;;13.20;;
40729;SDS011;26418;50.070;8.436;2024-01-30T02:03:45;23.40;;;12.88;;
40729;SDS011;26418;50.070;8.436;2024-01-30T02:06:12;20.35;;;12.13;;
40729;SDS011;26418;50.070;8.436;2024-01-30T02:08:38;26.27;;;13.70;;
40729;SDS011;26418;50.070;8.436;2024-01-30T02:11:04;23.88;;;13.88;;
40729;SDS011;26418;50.070;8.436;2024-01-30T02:13:30;20.40;;;12.65;;
40729;SDS011;26418;50.070;8.436;2024-01-30T02:15:56;24.13;;;13.38;;
40729;SDS011;26418;50.070;8.436;2024-01-30T02:18:22;25.80;;;14.13;;
40729;SDS011;26418;50.070;8.436;2024-01-30T02:20:47;23.80;;;13.85;;
40729;SDS011;26418;50.070;8.436;2024-01-30T02:23:15;22.27;;;14.18;;
40729;SDS011;26418;50.070;8.436;2024-01-30T02:25:41;24.85;;;14.20;;
40729;SDS011;26418;50.070;8.436;2024-01-30T02:28:10;24.15;;;13.75;;
40729;SDS011;26418;50.070;8.436;2024-01-30T02:30:37;25.00;;;13.40;;
40729;SDS011;26418;50.070;8.436;2024-01-30T02:33:03;22.67;;;13.10;;
40729;SDS011;26418;50.070;8.436;2024-01-30T02:35:28;27.08;;;14.50;;
40729;SDS011;26418;50.070;8.436;2024-01-30T02:37:54;28.67;;;14.13;;
40729;SDS011;26418;50.070;8.436;2024-01-30T02:40:19;20.95;;;13.32;;
40729;SDS011;26418;50.070;8.436;2024-01-30T02:42:45;24.10;;;13.52;;
40729;SDS011;26418;50.070;8.436;2024-01-30T02:45:11;25.05;;;13.48;;
40729;SDS011;26418;50.070;8.436;2024-01-30T02:47:37;22.20;;;13.15;;
40729;SDS011;26418;50.070;8.436;2024-01-30T02:50:02;22.02;;;13.60;;
40729;SDS011;26418;50.070;8.436;2024-01-30T02:52:28;22.15;;;12.82;;
40729;SDS011;26418;50.070;8.436;2024-01-30T02:54:54;20.10;;;12.80;;
40729;SDS011;26418;50.070;8.436;2024-01-30T02:57:19;28.58;;;14.27;;
40729;SDS011;26418;50.070;8.436;2024-01-30T02:59:45;23.70;;;14.23;;
40729;SDS011;26418;50.070;8.436;2024-01-30T03:02:10;28.17;;;14.18;;
40729;SDS011;26418;50.070;8.436;2024-01-30T03:04:36;23.65;;;13.38;;
40729;SDS011;26418;50.070;8.436;2024-01-30T03:07:01;20.98;;;13.40;;
40729;SDS011;26418;50.070;8.436;2024-01-30T03:09:27;28.33;;;14.27;;
40729;SDS011;26418;50.070;8.436;2024-01-30T03:11:52;22.48;;;14.43;;
40729;SDS011;26418;50.070;8.436;2024-01-30T03:14:18;28.38;;;13.85;;
40729;SDS011;26418;50.070;8.436;2024-01-30T03:16:43;24.77;;;13.23;;
40729;SDS011;26418;50.070;8.436;2024-01-30T03:19:09;26.27;;;14.35;;
40729;SDS011;26418;50.070;8.436;2024-01-30T03:21:34;20.92;;;12.85;;
40729;SDS011;26418;50.070;8.436;2024-01-30T03:24:00;27.58;;;13.27;;
40729;SDS011;26418;50.070;8.436;2024-01-30T03:26:26;27.45;;;14.68;;
40729;SDS011;26418;50.070;8.436;2024-01-30T03:28:51;21.63;;;13.77;;
40729;SDS011;26418;50.070;8.436;2024-01-30T03:31:17;27.50;;;15.27;;
40729;SDS011;26418;50.070;8.436;2024-01-30T03:33:43;26.60;;;14.75;;
40729;SDS011;26418;50.070;8.436;2024-01-30T03:36:08;26.35;;;14.40;;
40729;SDS011;26418;50.070;8.436;2024-01-30T03:38:34;28.90;;;16.13;;
40729;SDS011;26418;50.070;8.436;2024-01-30T03:41:00;29.25;;;14.98;;
40729;SDS011;26418;50.070;8.436;2024-01-30T03:43:25;28.83;;;16.20;;
40729;SDS011;26418;50.070;8.436;2024-01-30T03:45:51;26.65;;;15.32;;
40729;SDS011;26418;50.070;8.436;2024-01-30T03:48:17;22.25;;;15.20;;
40729;SDS011;26418;50.070;8.436;2024-01-30T03:50:42;25.63;;;14.13;;
40729;SDS011;26418;50.070;8.436;2024-01-30T03:53:08;27.30;;;13.95;;
40729;SDS011;26418;50.070;8.436;2024-01-30T03:55:34;30.58;;;16.42;;
40729;SDS011;26418;50.070;8.436;2024-01-30T03:57:59;23.10;;;14.25;;
40729;SDS011;26418;50.070;8.436;2024-01-30T04:00:25;29.90;;;15.43;;
40729;SDS011;26418;50.070;8.436;2024-01-30T04:02:51;23.63;;;15.75;;
40729;SDS011;26418;50.070;8.436;2024-01-30T04:05:16;26.73;;;15.68;;
40729;SDS011;26418;50.070;8.436;2024-01-30T04:07:42;25.40;;;15.35;;
40729;SDS011;26418;50.070;8.436;2024-01-30T04:10:08;29.92;;;15.68;;
40729;SDS011;26418;50.070;8.436;2024-01-30T04:12:35;30.25;;;16.55;;
40729;SDS011;26418;50.070;8.436;2024-01-30T04:15:01;28.42;;;16.27;;
40729;SDS011;26418;50.070;8.436;2024-01-30T04:17:27;28.95;;;16.23;;
40729;SDS011;26418;50.070;8.436;2024-01-30T04:19:54;37.88;;;16.08;;
40729;SDS011;26418;50.070;8.436;2024-01-30T04:22:20;25.08;;;15.30;;
40729;SDS011;26418;50.070;8.436;2024-01-30T04:24:46;27.33;;;15.68;;
40729;SDS011;26418;50.070;8.436;2024-01-30T04:27:11;34.80;;;17.45;;
40729;SDS011;26418;50.070;8.436;2024-01-30T04:29:37;26.05;;;14.57;;
40729;SDS011;26418;50.070;8.436;2024-01-30T04:32:03;27.60;;;15.48;;
40729;SDS011;26418;50.070;8.436;2024-01-30T04:34:29;25.98;;;15.38;;
40729;SDS011;26418;50.070;8.436;2024-01-30T04:36:54;25.52;;;14.95;;
40729;SDS011;26418;50.070;8.436;2024-01-30T04:39:20;33.10;;;16.05;;
40729;SDS011;26418;50.070;8.436;2024-01-30T04:41:45;30.58;;;16.30;;
40729;SDS011;26418;50.070;8.436;2024-01-30T04:44:11;27.30;;;16.63;;
40729;SDS011;26418;50.070;8.436;2024-01-30T04:46:36;33.72;;;17.15;;
40729;SDS011;26418;50.070;8.436;2024-01-30T04:49:02;24.98;;;15.25;;
40729;SDS011;26418;50.070;8.436;2024-01-30T04:51:28;24.98;;;16.05;;
40729;SDS011;26418;50.070;8.436;2024-01-30T04:53:54;27.45;;;16.92;;
40729;SDS011;26418;50.070;8.436;2024-01-30T04:56:20;31.90;;;16.95;;
40729;SDS011;26418;50.070;8.436;2024-01-30T04:58:46;29.92;;;16.77;;
40729;SDS011;26418;50.070;8.436;2024-01-30T05:01:14;29.92;;;16.95;;
40729;SDS011;26418;50.070;8.436;2024-01-30T05:03:41;27.85;;;16.17;;
40729;SDS011;26418;50.070;8.436;2024-01-30T05:06:06;23.98;;;16.40;;
40729;SDS011;26418;50.070;8.436;2024-01-30T05:08:32;30.13;;;16.85;;
40729;SDS011;26418;50.070;8.436;2024-01-30T05:11:00;26.48;;;15.85;;
40729;SDS011;26418;50.070;8.436;2024-01-30T05:13:26;28.27;;;16.67;;
40729;SDS011;26418;50.070;8.436;2024-01-30T05:15:52;27.45;;;15.65;;
40729;SDS011;26418;50.070;8.436;2024-01-30T05:18:17;37.47;;;18.83;;
40729;SDS011;26418;50.070;8.436;2024-01-30T05:20:43;29.23;;;17.50;;
40729;SDS011;26418;50.070;8.436;2024-01-30T05:23:08;30.98;;;17.45;;
40729;SDS011;26418;50.070;8.436;2024-01-30T05:25:34;29.80;;;16.75;;
40729;SDS011;26418;50.070;8.436;2024-01-30T05:27:59;26.33;;;15.15;;
40729;SDS011;26418;50.070;8.436;2024-01-30T05:30:25;25.80;;;14.68;;
40729;SDS011;26418;50.070;8.436;2024-01-30T05:32:50;31.63;;;17.48;;
40729;SDS011;26418;50.070;8.436;2024-01-30T05:35:17;32.45;;;17.33;;
40729;SDS011;26418;50.070;8.436;2024-01-30T05:37:43;30.42;;;17.00;;
40729;SDS011;26418;50.070;8.436;2024-01-30T05:40:08;30.15;;;17.05;;
40729;SDS011;26418;50.070;8.436;2024-01-30T05:42:34;28.00;;;16.77;;
40729;SDS011;26418;50.070;8.436;2024-01-30T05:45:00;28.65;;;15.98;;
40729;SDS011;26418;50.070;8.436;2024-01-30T05:47:26;25.20;;;14.90;;
40729;SDS011;26418;50.070;8.436;2024-01-30T05:49:51;23.90;;;14.13;;
40729;SDS011;26418;50.070;8.436;2024-01-30T05:52:17;29.92;;;16.42;;
40729;SDS011;26418;50.070;8.436;2024-01-30T05:54:44;30.63;;;17.15;;
40729;SDS011;26418;50.070;8.436;2024-01-30T05:57:09;31.48;;;18.40;;
40729;SDS011;26418;50.070;8.436;2024-01-30T05:59:35;36.13;;;18.50;;
40729;SDS011;26418;50.070;8.436;2024-01-30T06:02:01;36.78;;;18.52;;
40729;SDS011;26418;50.070;8.436;2024-01-30T06:04:26;31.65;;;17.92;;
40729;SDS011;26418;50.070;8.436;2024-01-30T06:06:52;31.25;;;17.85;;
40729;SDS011;26418;50.070;8.436;2024-01-30T06:09:18;31.05;;;17.85;;
40729;SDS011;26418;50.070;8.436;2024-01-30T06:11:43;31.10;;;16.95;;
40729;SDS011;26418;50.070;8.436;2024-01-30T06:14:09;32.72;;;18.20;;
40729;SDS011;26418;50.070;8.436;2024-01-30T06:16:34;33.65;;;17.35;;
40729;SDS011;26418;50.070;8.436;2024-01-30T06:19:00;35.20;;;18.80;;
40729;SDS011;26418;50.070;8.436;2024-01-30T06:21:25;29.48;;;17.30;;
40729;SDS011;26418;50.070;8.436;2024-01-30T06:23:51;32.33;;;18.95;;
40729;SDS011;26418;50.070;8.436;2024-01-30T06:26:16;30.58;;;17.88;;
40729;SDS011;26418;50.070;8.436;2024-01-30T06:28:42;36.47;;;18.15;;
40729;SDS011;26418;50.070;8.436;2024-01-30T06:31:07;34.38;;;18.52;;
40729;SDS011;26418;50.070;8.436;2024-01-30T06:33:33;32.53;;;18.55;;
40729;SDS011;26418;50.070;8.436;2024-01-30T06:35:58;32.65;;;18.15;;
40729;SDS011;26418;50.070;8.436;2024-01-30T06:38:24;38.00;;;18.13;;
40729;SDS011;26418;50.070;8.436;2024-01-30T06:40:50;33.90;;;19.00;;
40729;SDS011;26418;50.070;8.436;2024-01-30T06:43:15;36.08;;;17.38;;
40729;SDS011;26418;50.070;8.436;2024-01-30T06:45:41;23.48;;;13.68;;
40729;SDS011;26418;50.070;8.436;2024-01-30T06:48:08;16.38;;;10.68;;
40729;SDS011;26418;50.070;8.436;2024-01-30T06:50:33;23.92;;;12.25;;
40729;SDS011;26418;50.070;8.436;2024-01-30T06:52:59;33.30;;;15.68;;
40729;SDS011;26418;50.070;8.436;2024-01-30T06:55:24;31.48;;;17.30;;
40729;SDS011;26418;50.070;8.436;2024-01-30T06:57:50;31.30;;;16.55;;
40729;SDS011;26418;50.070;8.436;2024-01-30T07:00:15;30.85;;;17.08;;
40729;SDS011;26418;50.070;8.436;2024-01-30T07:02:41;30.83;;;17.25;;
40729;SDS011;26418;50.070;8.436;2024-01-30T07:05:07;33.92;;;18.60;;
40729;SDS011;26418;50.070;8.436;2024-01-30T07:07:33;32.08;;;17.95;;
40729;SDS011;26418;50.070;8.436;2024-01-30T07:09:58;30.25;;;16.98;;
40729;SDS011;26418;50.070;8.436;2024-01-30T07:12:24;27.10;;;16.40;;
40729;SDS011;26418;50.070;8.436;2024-01-30T07:14:51;30.95;;;15.77;;
40729;SDS011;26418;50.070;8.436;2024-01-30T07:17:16;32.08;;;18.90;;
40729;SDS011;26418;50.070;8.436;2024-01-30T07:19:42;22.10;;;12.60;;
40729;SDS011;26418;50.070;8.436;2024-01-30T07:22:08;28.10;;;14.43;;
40729;SDS011;26418;50.070;8.436;2024-01-30T07:24:33;32.97;;;18.85;;
40729;SDS011;26418;50.070;8.436;2024-01-30T07:26:59;31.48;;;17.98;;
40729;SDS011;26418;50.070;8.436;2024-01-30T07:29:25;31.30;;;16.83;;
40729;SDS011;26418;50.070;8.436;2024-01-30T07:31:50;35.17;;;18.70;;
40729;SDS011;26418;50.070;8.436;2024-01-30T07:34:16;37.35;;;18.35;;
40729;SDS011;26418;50.070;8.436;2024-01-30T07:36:42;30.08;;;17.70;;
40729;SDS011;26418;50.070;8.436;2024-01-30T07:39:07;32.67;;;17.73;;
40729;SDS011;26418;50.070;8.436;2024-01-30T07:41:33;31.10;;;18.20;;
40729;SDS011;26418;50.070;8.436;2024-01-30T07:43:58;28.45;;;17.85;;
40729;SDS011;26418;50.070;8.436;2024-01-30T07:46:24;32.63;;;18.00;;
40729;SDS011;26418;50.070;8.436;2024-01-30T07:48:51;27.67;;;17.35;;
40729;SDS011;26418;50.070;8.436;2024-01-30T07:51:16;28.88;;;16.25;;
40729;SDS011;26418;50.070;8.436;2024-01-30T07:53:42;28.90;;;17.17;;
40729;SDS011;26418;50.070;8.436;2024-01-30T07:56:08;30.02;;;16.30;;
40729;SDS011;26418;50.070;8.436;2024-01-30T07:58:33;33.05;;;17.17;;
40729;SDS011;26418;50.070;8.436;2024-01-30T08:00:59;36.15;;;18.02;;
40729;SDS011;26418;50.070;8.436;2024-01-30T08:03:25;26.92;;;17.38;;
40729;SDS011;26418;50.070;8.436;2024-01-30T08:05:51;30.13;;;16.95;;
40729;SDS011;26418;50.070;8.436;2024-01-30T08:08:17;27.98;;;16.38;;
40729;SDS011;26418;50.070;8.436;2024-01-30T08:10:42;29.58;;;16.55;;
40729;SDS011;26418;50.070;8.436;2024-01-30T08:13:08;29.05;;;17.58;;
40729;SDS011;26418;50.070;8.436;2024-01-30T08:15:34;32.15;;;18.00;;
40729;SDS011;26418;50.070;8.436;2024-01-30T08:18:00;27.92;;;17.92;;
40729;SDS011;26418;50.070;8.436;2024-01-30T08:20:26;30.25;;;18.27;;
40729;SDS011;26418;50.070;8.436;2024-01-30T08:22:51;29.45;;;17.52;;
40729;SDS011;26418;50.070;8.436;2024-01-30T08:25:17;29.48;;;15.93;;
40729;SDS011;26418;50.070;8.436;2024-01-30T08:27:43;24.17;;;15.38;;
40729;SDS011;26418;50.070;8.436;2024-01-30T08:30:10;25.90;;;14.38;;
40729;SDS011;26418;50.070;8.436;2024-01-30T08:32:36;19.33;;;13.55;;
40729;SDS011;26418;50.070;8.436;2024-01-30T08:35:01;26.27;;;16.05;;
40729;SDS011;26418;50.070;8.436;2024-01-30T08:37:31;24.70;;;14.90;;
40729;SDS011;26418;50.070;8.436;2024-01-30T08:39:56;25.73;;;16.63;;
40729;SDS011;26418;50.070;8.436;2024-01-30T08:42:22;27.20;;;17.38;;
40729;SDS011;26418;50.070;8.436;2024-01-30T08:44:50;29.38;;;16.02;;
40729;SDS011;26418;50.070;8.436;2024-01-30T08:47:18;27.95;;;16.15;;
40729;SDS011;26418;50.070;8.436;2024-01-30T08:49:43;25.98;;;15.38;;
40729;SDS011;26418;50.070;8.436;2024-01-30T08:52:12;25.58;;;15.93;;
40729;SDS011;26418;50.070;8.436;2024-01-30T08:54:38;27.08;;;16.02;;
40729;SDS011;26418;50.070;8.436;2024-01-30T08:57:03;28.48;;;18.42;;
40729;SDS011;26418;50.070;8.436;2024-01-30T08:59:29;33.88;;;19.30;;
40729;SDS011;26418;50.070;8.436;2024-01-30T09:01:55;26.17;;;16.60;;
40729;SDS011;26418;50.070;8.436;2024-01-30T09:04:23;28.80;;;17.27;;
40729;SDS011;26418;50.070;8.436;2024-01-30T09:06:49;26.67;;;15.93;;
40729;SDS011;26418;50.070;8.436;2024-01-30T09:09:15;23.05;;;15.25;;
40729;SDS011;26418;50.070;8.436;2024-01-30T09:11:41;25.25;;;15.20;;
40729;SDS011;26418;50.070;8.436;2024-01-30T09:14:06;25.70;;;15.95;;
40729;SDS011;26418;50.070;8.436;2024-01-30T09:16:32;24.88;;;13.63;;
40729;SDS011;26418;50.070;8.436;2024-01-30T09:18:58;23.50;;;13.25;;
40729;SDS011;26418;50.070;8.436;2024-01-30T09:21:23;22.63;;;14.88;;
40729;SDS011;26418;50.070;8.436;2024-01-30T09:23:49;22.00;;;14.38;;
40729;SDS011;26418;50.070;8.436;2024-01-30T09:26:14;23.30;;;15.43;;
40729;SDS011;26418;50.070;8.436;2024-01-30T09:28:40;24.63;;;15.07;;
40729;SDS011;26418;50.070;8.436;2024-01-30T09:31:10;28.65;;;16.58;;
40729;SDS011;26418;50.070;8.436;2024-01-30T09:33:36;29.83;;;17.35;;
40729;SDS011;26418;50.070;8.436;2024-01-30T09:36:02;23.08;;;14.77;;
40729;SDS011;26418;50.070;8.436;2024-01-30T09:38:27;23.30;;;14.70;;
40729;SDS011;26418;50.070;8.436;2024-01-30T09:40:56;25.58;;;15.45;;
40729;SDS011;26418;50.070;8.436;2024-01-30T09:43:31;27.63;;;17.55;;
40729;SDS011;26418;50.070;8.436;2024-01-30T09:46:00;24.55;;;15.63;;
40729;SDS011;26418;50.070;8.436;2024-01-30T09:48:28;21.02;;;14.27;;
40729;SDS011;26418;50.070;8.436;2024-01-30T09:50:55;27.65;;;14.82;;
40729;SDS011;26418;50.070;8.436;2024-01-30T09:53:22;22.42;;;14.38;;
40729;SDS011;26418;50.070;8.436;2024-01-30T09:55:49;26.27;;;15.45;;
40729;SDS011;26418;50.070;8.436;2024-01-30T09:58:15;23.98;;;15.57;;
40729;SDS011;26418;50.070;8.436;2024-01-30T10:00:41;25.98;;;16.35;;
40729;SDS011;26418;50.070;8.436;2024-01-30T10:03:07;25.67;;;16.00;;
40729;SDS011;26418;50.070;8.436;2024-01-30T10:05:34;27.35;;;17.13;;
40729;SDS011;26418;50.070;8.436;2024-01-30T10:08:05;26.23;;;16.50;;
40729;SDS011;26418;50.070;8.436;2024-01-30T10:10:33;29.20;;;17.00;;
40729;SDS011;26418;50.070;8.436;2024-01-30T10:13:00;32.15;;;18.67;;
40729;SDS011;26418;50.070;8.436;2024-01-30T10:15:25;28.23;;;17.23;;
40729;SDS011;26418;50.070;8.436;2024-01-30T10:17:53;24.88;;;16.05;;
40729;SDS011;26418;50.070;8.436;2024-01-30T10:20:18;24.35;;;16.17;;
40729;SDS011;26418;50.070;8.436;2024-01-30T10:22:44;24.67;;;15.93;;
40729;SDS011;26418;50.070;8.436;2024-01-30T10:25:11;31.17;;;16.83;;
40729;SDS011;26418;50.070;8.436;2024-01-30T10:27:37;22.95;;;15.77;;
40729;SDS011;26418;50.070;8.436;2024-01-30T10:30:05;26.77;;;16.30;;
40729;SDS011;26418;50.070;8.436;2024-01-30T10:32:31;24.85;;;15.55;;
40729;SDS011;26418;50.070;8.436;2024-01-30T10:34:56;26.30;;;14.45;;
40729;SDS011;26418;50.070;8.436;2024-01-30T10:37:22;23.98;;;14.45;;
40729;SDS011;26418;50.070;8.436;2024-01-30T10:39:50;22.20;;;13.93;;
40729;SDS011;26418;50.070;8.436;2024-01-30T10:42:18;20.98;;;14.98;;
40729;SDS011;26418;50.070;8.436;2024-01-30T10:44:54;22.77;;;14.73;;
40729;SDS011;26418;50.070;8.436;2024-01-30T10:47:26;23.55;;;17.00;;
40729;SDS011;26418;50.070;8.436;2024-01-30T10:49:54;27.55;;;16.60;;
40729;SDS011;26418;50.070;8.436;2024-01-30T10:52:21;22.83;;;15.38;;
40729;SDS011;26418;50.070;8.436;2024-01-30T10:54:50;28.67;;;15.80;;
40729;SDS011;26418;50.070;8.436;2024-01-30T10:57:17;25.80;;;17.10;;
40729;SDS011;26418;50.070;8.436;2024-01-30T10:59:43;23.13;;;15.15;;
40729;SDS011;26418;50.070;8.436;2024-01-30T11:02:10;24.52;;;17.33;;
40729;SDS011;26418;50.070;8.436;2024-01-30T11:04:37;26.05;;;15.18;;
40729;SDS011;26418;50.070;8.436;2024-01-30T11:07:13;26.25;;;16.48;;
40729;SDS011;26418;50.070;8.436;2024-01-30T11:12:26;27.33;;;16.92;;
40729;SDS011;26418;50.070;8.436;2024-01-30T11:20:09;21.27;;;13.75;;
40729;SDS011;26418;50.070;8.436;2024-01-30T11:23:01;26.10;;;15.52;;
40729;SDS011;26418;50.070;8.436;2024-01-30T11:25:31;23.85;;;14.45;;
40729;SDS011;26418;50.070;8.436;2024-01-30T11:27:57;25.60;;;16.10;;
40729;SDS011;26418;50.070;8.436;2024-01-30T11:30:29;26.13;;;16.50;;
40729;SDS011;26418;50.070;8.436;2024-01-30T11:33:00;26.35;;;14.50;;
40729;SDS011;26418;50.070;8.436;2024-01-30T11:35:42;25.50;;;14.73;;
40729;SDS011;26418;50.070;8.436;2024-01-30T11:38:09;26.60;;;15.25;;
40729;SDS011;26418;50.070;8.436;2024-01-30T11:40:39;24.30;;;15.63;;
40729;SDS011;26418;50.070;8.436;2024-01-30T11:43:06;17.88;;;13.27;;
40729;SDS011;26418;50.070;8.436;2024-01-30T11:45:33;25.55;;;14.77;;
40729;SDS011;26418;50.070;8.436;2024-01-30T11:48:01;23.00;;;15.38;;
40729;SDS011;26418;50.070;8.436;2024-01-30T11:50:29;28.85;;;16.50;;
40729;SDS011;26418;50.070;8.436;2024-01-30T11:52:55;22.02;;;15.25;;
40729;SDS011;26418;50.070;8.436;2024-01-30T11:55:22;21.88;;;15.38;;
40729;SDS011;26418;50.070;8.436;2024-01-30T11:57:48;23.83;;;15.98;;
40729;SDS011;26418;50.070;8.436;2024-01-30T12:00:14;25.98;;;15.57;;
40729;SDS011;26418;50.070;8.436;2024-01-30T12:02:41;26.58;;;15.75;;
40729;SDS011;26418;50.070;8.436;2024-01-30T12:05:07;25.77;;;16.42;;
40729;SDS011;26418;50.070;8.436;2024-01-30T12:07:33;25.27;;;15.95;;
40729;SDS011;26418;50.070;8.436;2024-01-30T12:09:59;24.80;;;16.50;;
40729;SDS011;26418;50.070;8.436;2024-01-30T12:12:25;25.10;;;15.32;;
40729;SDS011;26418;50.070;8.436;2024-01-30T12:14:52;22.08;;;15.07;;
40729;SDS011;26418;50.070;8.436;2024-01-30T12:17:30;20.85;;;14.88;;
40729;SDS011;26418;50.070;8.436;2024-01-30T12:22:36;23.75;;;15.35;;
40729;SDS011;26418;50.070;8.436;2024-01-30T12:25:08;25.88;;;15.27;;
40729;SDS011;26418;50.070;8.436;2024-01-30T12:27:38;26.08;;;14.77;;
40729;SDS011;26418;50.070;8.436;2024-01-30T12:30:05;24.30;;;15.85;;
40729;SDS011;26418;50.070;8.436;2024-01-30T12:32:39;22.65;;;14.98;;
40729;SDS011;26418;50.070;8.436;2024-01-30T12:35:12;27.27;;;16.50;;
40729;SDS011;26418;50.070;8.436;2024-01-30T12:37:39;26.63;;;15.80;;
40729;SDS011;26418;50.070;8.436;2024-01-30T12:40:05;25.92;;;15.35;;
40729;SDS011;26418;50.070;8.436;2024-01-30T12:42:32;23.15;;;14.38;;
40729;SDS011;26418;50.070;8.436;2024-01-30T12:44:58;24.10;;;14.98;;
40729;SDS011;26418;50.070;8.436;2024-01-30T12:47:24;20.60;;;13.98;;
40729;SDS011;26418;50.070;8.436;2024-01-30T12:49:50;20.83;;;13.82;;
40729;SDS011;26418;50.070;8.436;2024-01-30T12:52:18;26.70;;;15.02;;
40729;SDS011;26418;50.070;8.436;2024-01-30T12:54:44;23.02;;;13.38;;
40729;SDS011;26418;50.070;8.436;2024-01-30T12:57:10;19.80;;;13.05;;
40729;SDS011;26418;50.070;8.436;2024-01-30T12:59:35;22.02;;;13.15;;
40729;SDS011;26418;50.070;8.436;2024-01-30T13:02:01;20.90;;;13.07;;
40729;SDS011;26418;50.070;8.436;2024-01-30T13:04:28;18.92;;;12.30;;
40729;SDS011;26418;50.070;8.436;2024-01-30T13:06:54;17.33;;;11.57;;
40729;SDS011;26418;50.070;8.436;2024-01-30T13:09:19;23.70;;;14.70;;
40729;SDS011;26418;50.070;8.436;2024-01-30T13:11:45;23.65;;;13.63;;
40729;SDS011;26418;50.070;8.436;2024-01-30T13:14:11;22.25;;;15.10;;
40729;SDS011;26418;50.070;8.436;2024-01-30T13:16:37;22.85;;;15.65;;
40729;SDS011;26418;50.070;8.436;2024-01-30T13:19:02;23.83;;;15.05;;
40729;SDS011;26418;50.070;8.436;2024-01-30T13:21:28;29.05;;;16.52;;
40729;SDS011;26418;50.070;8.436;2024-01-30T13:23:54;24.05;;;14.60;;
40729;SDS011;26418;50.070;8.436;2024-01-30T13:26:20;23.30;;;16.38;;
40729;SDS011;26418;50.070;8.436;2024-01-30T13:28:46;24.38;;;16.65;;
40729;SDS011;26418;50.070;8.436;2024-01-30T13:31:12;27.08;;;15.77;;
40729;SDS011;26418;50.070;8.436;2024-01-30T13:33:39;25.25;;;17.20;;
40729;SDS011;26418;50.070;8.436;2024-01-30T13:36:06;28.25;;;15.57;;
40729;SDS011;26418;50.070;8.436;2024-01-30T13:38:32;24.73;;;15.85;;
40729;SDS011;26418;50.070;8.436;2024-01-30T13:40:58;22.67;;;15.63;;
40729;SDS011;26418;50.070;8.436;2024-01-30T13:43:24;26.38;;;16.42;;
40729;SDS011;26418;50.070;8.436;2024-01-30T13:45:50;22.95;;;15.02;;
40729;SDS011;26418;50.070;8.436;2024-01-30T13:48:15;27.90;;;16.27;;
40729;SDS011;26418;50.070;8.436;2024-01-30T13:50:41;25.67;;;16.15;;
40729;SDS011;26418;50.070;8.436;2024-01-30T13:53:06;22.55;;;15.13;;
40729;SDS011;26418;50.070;8.436;2024-01-30T13:55:33;25.65;;;16.08;;
40729;SDS011;26418;50.070;8.436;2024-01-30T13:57:59;25.25;;;15.18;;
40729;SDS011;26418;50.070;8.436;2024-01-30T14:00:26;23.30;;;15.52;;
40729;SDS011;26418;50.070;8.436;2024-01-30T14:02:52;27.10;;;17.50;;
40729;SDS011;26418;50.070;8.436;2024-01-30T14:05:20;25.40;;;16.52;;
40729;SDS011;26418;50.070;8.436;2024-01-30T14:07:46;23.85;;;16.25;;
40729;SDS011;26418;50.070;8.436;2024-01-30T14:10:12;26.25;;;15.43;;
40729;SDS011;26418;50.070;8.436;2024-01-30T14:12:38;26.13;;;16.83;;
40729;SDS011;26418;50.070;8.436;2024-01-30T14:15:04;32.55;;;18.15;;
40729;SDS011;26418;50.070;8.436;2024-01-30T14:17:30;27.85;;;17.90;;
40729;SDS011;26418;50.070;8.436;2024-01-30T14:19:56;22.05;;;14.88;;
40729;SDS011;26418;50.070;8.436;2024-01-30T14:22:21;28.33;;;16.52;;
40729;SDS011;26418;50.070;8.436;2024-01-30T14:24:47;22.23;;;15.95;;
40729;SDS011;26418;50.070;8.436;2024-01-30T14:27:13;29.92;;;17.38;;